Minerva Virgo — SXXT — position and weather

sailwx.info

Track history (hours):
 
Tides and Currents Weather Stations Pressure Air Temp Water Temp Dewpoint Dewpoint Depression Visibility Wind Speed Wind Dir Waves Ship Positions

Minerva Virgo

Last reported at 2016-Feb-08 04:33 UTC. Time now 2016-Feb-08 09:54 UTC.
Position N 51°34' E 002°23'.

Length 182 m; draft 11 m.

Type: Ship (hazmat cat A). MMSI: 240730000.

Date/timePositionNaut miles runAvg speedWind from/ knotsBaromVisibWave heightAir tempDewpointWater temp
2016-Feb-08 04:33N 51°34' E 002°23'1313.3
2016-Feb-08 03:34N 51°25' E 002°08'1212.3
2016-Feb-08 02:33N 51°13' E 002°02'1414.5
2016-Feb-08 01:33N 51°05' E 001°43'  
2016-Feb-05 12:28N 41°58' W 009°57'1111.9
2016-Feb-05 11:32N 41°47' W 009°57'1313.3
2016-Feb-05 10:31N 41°33' W 009°57'1313.0
2016-Feb-05 09:31N 41°20' W 009°57'1111.7
2016-Feb-05 08:33N 41°09' W 009°57'1413.6
2016-Feb-05 07:31N 40°55' W 009°57'1111.0
2016-Feb-05 06:33N 40°44' W 009°57'1312.9
2016-Feb-05 05:31N 40°31' W 009°57'1211.8
2016-Feb-05 04:31N 40°19' W 009°57'1313.3
2016-Feb-05 03:31N 40°06' W 009°57'1312.0
2016-Feb-05 02:28N 39°53' W 009°58'1112.1
2016-Feb-05 01:31N 39°42' W 009°59'1111.7
2016-Feb-05 00:33N 39°31' W 010°02'1212.0
2016-Feb-04 23:33N 39°19' W 010°03'1212.4
2016-Feb-04 22:33N 39°07' W 009°60'1212.1
2016-Feb-04 21:33N 38°55' W 009°57'1212.1
2016-Feb-04 20:33N 38°43' W 009°56'1212.0
2016-Feb-04 19:33N 38°31' W 009°54'1212.1
2016-Feb-04 18:33N 38°19' W 009°50'1212.2
2016-Feb-04 17:33N 38°07' W 009°47'1212.3
2016-Feb-04 16:34N 37°55' W 009°43'1212.0
2016-Feb-04 15:32N 37°43' W 009°40'1412.7
2016-Feb-04 14:28N 37°30' W 009°36'1112.3
2016-Feb-04 13:33N 37°19' W 009°32'1812.2
2016-Feb-04 12:07N 37°02' W 009°28'611.2
2016-Feb-04 11:33N 36°56' W 009°26'1212.2
2016-Feb-04 10:33N 36°45' W 009°18'1211.8
2016-Feb-04 09:31N 36°38' W 009°06'1212.5
2016-Feb-04 08:31N 36°34' W 008°51'1312.6
2016-Feb-04 07:31N 36°30' W 008°36'1212.1
2016-Feb-04 06:33N 36°26' W 008°23'12812.6
2016-Feb-03 20:25N 35°58' W 005°48'1112.9
2016-Feb-03 19:34N 35°58' W 005°35'1212.0
2016-Feb-03 18:34N 36°01' W 005°20'18912.5
2016-Feb-03 03:30N 36°33' W 001°29'1311.8
2016-Feb-03 02:23N 36°36' W 001°13'1012.2
2016-Feb-03 01:34N 36°38' W 001°01'1212.2
2016-Feb-03 00:33N 36°40' W 000°46'1211.8
2016-Feb-02 23:33N 36°43' W 000°32'1312.6
2016-Feb-02 22:33N 36°45' W 000°16'1312.5
2016-Feb-02 21:33N 36°48' W 000°01'1312.5
2016-Feb-02 20:33N 36°51' E 000°14'1312.8
2016-Feb-02 19:33N 36°53' E 000°30'1312.8
2016-Feb-02 18:33N 36°56' E 000°46'1313.0
2016-Feb-02 17:33N 36°58' E 001°02'1312.8
2016-Feb-02 16:33N 37°01' E 001°17'1312.6
2016-Feb-02 15:33N 37°04' E 001°33'1212.3
2016-Feb-02 14:33N 37°06' E 001°48'1312.9
2016-Feb-02 13:33N 37°09' E 002°03'1413.5
2016-Feb-02 12:33N 37°12' E 002°20'3912.7
2016-Feb-02 09:30N 37°20' E 003°08'  
Track history (hours):
 
Tides and Currents Weather Stations Pressure Air Temp Water Temp Dewpoint Dewpoint Depression Visibility Wind Speed Wind Dir Waves Ship Positions

Minerva Virgo

Last reported at 2016-Feb-08 04:33 UTC. Time now 2016-Feb-08 09:54 UTC.
Position N 51°34' E 002°23'.

Length 182 m; draft 11 m.

Type: Ship (hazmat cat A). MMSI: 240730000.

Date/timePositionNaut miles runAvg speedWind from/ knotsBaromVisibWave heightAir tempDewpointWater temp
2016-Feb-08 04:33N 51°34' E 002°23'1313.3
2016-Feb-08 03:34N 51°25' E 002°08'1212.3
2016-Feb-08 02:33N 51°13' E 002°02'1414.5
2016-Feb-08 01:33N 51°05' E 001°43'  
2016-Feb-05 12:28N 41°58' W 009°57'1111.9
2016-Feb-05 11:32N 41°47' W 009°57'1313.3
2016-Feb-05 10:31N 41°33' W 009°57'1313.0
2016-Feb-05 09:31N 41°20' W 009°57'1111.7
2016-Feb-05 08:33N 41°09' W 009°57'1413.6
2016-Feb-05 07:31N 40°55' W 009°57'1111.0
2016-Feb-05 06:33N 40°44' W 009°57'1312.9
2016-Feb-05 05:31N 40°31' W 009°57'1211.8
2016-Feb-05 04:31N 40°19' W 009°57'1313.3
2016-Feb-05 03:31N 40°06' W 009°57'1312.0
2016-Feb-05 02:28N 39°53' W 009°58'1112.1
2016-Feb-05 01:31N 39°42' W 009°59'1111.7
2016-Feb-05 00:33N 39°31' W 010°02'1212.0
2016-Feb-04 23:33N 39°19' W 010°03'1212.4
2016-Feb-04 22:33N 39°07' W 009°60'1212.1
2016-Feb-04 21:33N 38°55' W 009°57'1212.1
2016-Feb-04 20:33N 38°43' W 009°56'1212.0
2016-Feb-04 19:33N 38°31' W 009°54'1212.1
2016-Feb-04 18:33N 38°19' W 009°50'1212.2
2016-Feb-04 17:33N 38°07' W 009°47'1212.3
2016-Feb-04 16:34N 37°55' W 009°43'1212.0
2016-Feb-04 15:32N 37°43' W 009°40'1412.7
2016-Feb-04 14:28N 37°30' W 009°36'1112.3
2016-Feb-04 13:33N 37°19' W 009°32'1812.2
2016-Feb-04 12:07N 37°02' W 009°28'611.2
2016-Feb-04 11:33N 36°56' W 009°26'1212.2
2016-Feb-04 10:33N 36°45' W 009°18'1211.8
2016-Feb-04 09:31N 36°38' W 009°06'1212.5
2016-Feb-04 08:31N 36°34' W 008°51'1312.6
2016-Feb-04 07:31N 36°30' W 008°36'1212.1
2016-Feb-04 06:33N 36°26' W 008°23'12812.6
2016-Feb-03 20:25N 35°58' W 005°48'1112.9
2016-Feb-03 19:34N 35°58' W 005°35'1212.0
2016-Feb-03 18:34N 36°01' W 005°20'18912.5
2016-Feb-03 03:30N 36°33' W 001°29'1311.8
2016-Feb-03 02:23N 36°36' W 001°13'1012.2
2016-Feb-03 01:34N 36°38' W 001°01'1212.2
2016-Feb-03 00:33N 36°40' W 000°46'1211.8
2016-Feb-02 23:33N 36°43' W 000°32'1312.6
2016-Feb-02 22:33N 36°45' W 000°16'1312.5
2016-Feb-02 21:33N 36°48' W 000°01'1312.5
2016-Feb-02 20:33N 36°51' E 000°14'1312.8
2016-Feb-02 19:33N 36°53' E 000°30'1312.8
2016-Feb-02 18:33N 36°56' E 000°46'1313.0
2016-Feb-02 17:33N 36°58' E 001°02'1312.8
2016-Feb-02 16:33N 37°01' E 001°17'1312.6
2016-Feb-02 15:33N 37°04' E 001°33'1212.3
2016-Feb-02 14:33N 37°06' E 001°48'1312.9
2016-Feb-02 13:33N 37°09' E 002°03'1413.5
2016-Feb-02 12:33N 37°12' E 002°20'3912.7
2016-Feb-02 09:30N 37°20' E 003°08'  

Dump ship's entire track history